sensor_id;sensor_type;location;lat;lon;timestamp;P1;durP1;ratioP1;P2;durP2;ratioP2
1378;SDS011;683;48.738;9.226;2023-04-06T00:01:48;17.90;;;13.57;;
1378;SDS011;683;48.738;9.226;2023-04-06T00:04:16;16.07;;;12.60;;
1378;SDS011;683;48.738;9.226;2023-04-06T00:06:43;13.73;;;11.70;;
1378;SDS011;683;48.738;9.226;2023-04-06T00:09:11;14.80;;;10.90;;
1378;SDS011;683;48.738;9.226;2023-04-06T00:11:40;15.23;;;12.17;;
1378;SDS011;683;48.738;9.226;2023-04-06T00:14:09;18.00;;;12.73;;
1378;SDS011;683;48.738;9.226;2023-04-06T00:16:37;14.93;;;12.30;;
1378;SDS011;683;48.738;9.226;2023-04-06T00:19:04;12.80;;;11.50;;
1378;SDS011;683;48.738;9.226;2023-04-06T00:21:32;10.80;;;9.60;;
1378;SDS011;683;48.738;9.226;2023-04-06T00:24:01;12.80;;;10.80;;
1378;SDS011;683;48.738;9.226;2023-04-06T00:26:31;14.70;;;12.50;;
1378;SDS011;683;48.738;9.226;2023-04-06T00:28:58;15.00;;;12.60;;
1378;SDS011;683;48.738;9.226;2023-04-06T00:31:28;14.57;;;12.90;;
1378;SDS011;683;48.738;9.226;2023-04-06T00:33:57;14.37;;;12.87;;
1378;SDS011;683;48.738;9.226;2023-04-06T00:36:25;18.50;;;12.07;;
1378;SDS011;683;48.738;9.226;2023-04-06T00:38:52;16.10;;;11.77;;
1378;SDS011;683;48.738;9.226;2023-04-06T00:41:20;23.20;;;11.67;;
1378;SDS011;683;48.738;9.226;2023-04-06T00:43:48;14.73;;;10.47;;
1378;SDS011;683;48.738;9.226;2023-04-06T00:46:15;13.60;;;10.33;;
1378;SDS011;683;48.738;9.226;2023-04-06T00:48:46;15.33;;;11.30;;
1378;SDS011;683;48.738;9.226;2023-04-06T00:51:13;12.20;;;11.07;;
1378;SDS011;683;48.738;9.226;2023-04-06T00:53:41;20.20;;;11.07;;
1378;SDS011;683;48.738;9.226;2023-04-06T00:56:12;15.60;;;10.80;;
1378;SDS011;683;48.738;9.226;2023-04-06T00:58:51;14.57;;;11.93;;
1378;SDS011;683;48.738;9.226;2023-04-06T01:01:22;14.33;;;11.70;;
1378;SDS011;683;48.738;9.226;2023-04-06T01:03:56;13.30;;;10.50;;
1378;SDS011;683;48.738;9.226;2023-04-06T01:06:23;13.77;;;11.60;;
1378;SDS011;683;48.738;9.226;2023-04-06T01:08:58;16.03;;;12.90;;
1378;SDS011;683;48.738;9.226;2023-04-06T01:11:29;16.07;;;11.50;;
1378;SDS011;683;48.738;9.226;2023-04-06T01:13:58;16.20;;;13.00;;
1378;SDS011;683;48.738;9.226;2023-04-06T01:16:37;12.30;;;10.53;;
1378;SDS011;683;48.738;9.226;2023-04-06T01:19:10;14.40;;;10.30;;
1378;SDS011;683;48.738;9.226;2023-04-06T01:21:44;14.60;;;11.93;;
1378;SDS011;683;48.738;9.226;2023-04-06T01:24:39;16.00;;;11.67;;
1378;SDS011;683;48.738;9.226;2023-04-06T01:27:14;13.67;;;12.20;;
1378;SDS011;683;48.738;9.226;2023-04-06T01:29:55;17.37;;;12.87;;
1378;SDS011;683;48.738;9.226;2023-04-06T01:32:52;18.10;;;13.10;;
1378;SDS011;683;48.738;9.226;2023-04-06T01:35:40;17.57;;;13.50;;
1378;SDS011;683;48.738;9.226;2023-04-06T01:38:14;17.73;;;12.17;;
1378;SDS011;683;48.738;9.226;2023-04-06T01:40:47;17.10;;;12.00;;
1378;SDS011;683;48.738;9.226;2023-04-06T01:43:17;18.37;;;12.87;;
1378;SDS011;683;48.738;9.226;2023-04-06T01:46:00;15.90;;;12.60;;
1378;SDS011;683;48.738;9.226;2023-04-06T01:48:33;17.40;;;14.50;;
1378;SDS011;683;48.738;9.226;2023-04-06T01:51:08;16.10;;;12.67;;
1378;SDS011;683;48.738;9.226;2023-04-06T01:53:45;19.17;;;13.00;;
1378;SDS011;683;48.738;9.226;2023-04-06T01:56:16;19.43;;;12.13;;
1378;SDS011;683;48.738;9.226;2023-04-06T01:58:52;21.57;;;13.93;;
1378;SDS011;683;48.738;9.226;2023-04-06T02:01:21;13.90;;;11.80;;
1378;SDS011;683;48.738;9.226;2023-04-06T02:03:55;14.60;;;13.03;;
1378;SDS011;683;48.738;9.226;2023-04-06T02:06:26;15.87;;;13.60;;
1378;SDS011;683;48.738;9.226;2023-04-06T02:08:53;16.17;;;14.20;;
1378;SDS011;683;48.738;9.226;2023-04-06T02:11:22;21.83;;;17.33;;
1378;SDS011;683;48.738;9.226;2023-04-06T02:16:26;16.87;;;12.70;;
1378;SDS011;683;48.738;9.226;2023-04-06T02:18:54;23.17;;;14.47;;
1378;SDS011;683;48.738;9.226;2023-04-06T02:21:22;17.17;;;11.70;;
1378;SDS011;683;48.738;9.226;2023-04-06T02:23:50;17.30;;;13.10;;
1378;SDS011;683;48.738;9.226;2023-04-06T02:26:23;14.37;;;12.83;;
1378;SDS011;683;48.738;9.226;2023-04-06T02:28:51;23.13;;;12.30;;
1378;SDS011;683;48.738;9.226;2023-04-06T02:31:18;14.53;;;11.40;;
1378;SDS011;683;48.738;9.226;2023-04-06T02:33:48;16.60;;;13.03;;
1378;SDS011;683;48.738;9.226;2023-04-06T02:36:16;15.83;;;13.13;;
1378;SDS011;683;48.738;9.226;2023-04-06T02:38:44;17.80;;;12.30;;
1378;SDS011;683;48.738;9.226;2023-04-06T02:41:12;18.60;;;13.47;;
1378;SDS011;683;48.738;9.226;2023-04-06T02:43:41;17.97;;;13.17;;
1378;SDS011;683;48.738;9.226;2023-04-06T02:46:16;18.23;;;12.07;;
1378;SDS011;683;48.738;9.226;2023-04-06T02:48:46;17.57;;;14.23;;
1378;SDS011;683;48.738;9.226;2023-04-06T02:51:14;18.63;;;13.53;;
1378;SDS011;683;48.738;9.226;2023-04-06T02:53:46;15.77;;;11.50;;
1378;SDS011;683;48.738;9.226;2023-04-06T02:56:14;20.30;;;13.57;;
1378;SDS011;683;48.738;9.226;2023-04-06T02:58:47;14.30;;;11.53;;
1378;SDS011;683;48.738;9.226;2023-04-06T03:01:15;17.60;;;13.63;;
1378;SDS011;683;48.738;9.226;2023-04-06T03:03:43;18.67;;;12.80;;
1378;SDS011;683;48.738;9.226;2023-04-06T03:06:19;16.50;;;13.00;;
1378;SDS011;683;48.738;9.226;2023-04-06T03:08:52;19.30;;;14.40;;
1378;SDS011;683;48.738;9.226;2023-04-06T03:11:20;17.43;;;13.43;;
1378;SDS011;683;48.738;9.226;2023-04-06T03:13:51;15.40;;;13.00;;
1378;SDS011;683;48.738;9.226;2023-04-06T03:16:19;17.67;;;14.83;;
1378;SDS011;683;48.738;9.226;2023-04-06T03:18:47;20.97;;;14.43;;
1378;SDS011;683;48.738;9.226;2023-04-06T03:21:17;15.07;;;12.40;;
1378;SDS011;683;48.738;9.226;2023-04-06T03:23:48;17.20;;;13.43;;
1378;SDS011;683;48.738;9.226;2023-04-06T03:26:16;16.80;;;12.67;;
1378;SDS011;683;48.738;9.226;2023-04-06T03:28:44;14.97;;;13.37;;
1378;SDS011;683;48.738;9.226;2023-04-06T03:31:13;16.47;;;13.97;;
1378;SDS011;683;48.738;9.226;2023-04-06T03:33:59;16.67;;;13.40;;
1378;SDS011;683;48.738;9.226;2023-04-06T03:36:32;15.60;;;12.70;;
1378;SDS011;683;48.738;9.226;2023-04-06T03:39:02;18.73;;;14.50;;
1378;SDS011;683;48.738;9.226;2023-04-06T03:41:36;17.33;;;14.10;;
1378;SDS011;683;48.738;9.226;2023-04-06T03:44:20;15.40;;;12.60;;
1378;SDS011;683;48.738;9.226;2023-04-06T03:46:50;18.37;;;13.47;;
1378;SDS011;683;48.738;9.226;2023-04-06T03:49:18;17.80;;;13.33;;
1378;SDS011;683;48.738;9.226;2023-04-06T03:51:49;16.60;;;12.40;;
1378;SDS011;683;48.738;9.226;2023-04-06T03:54:16;15.73;;;12.97;;
1378;SDS011;683;48.738;9.226;2023-04-06T03:56:44;15.07;;;12.03;;
1378;SDS011;683;48.738;9.226;2023-04-06T03:59:11;12.63;;;11.33;;
1378;SDS011;683;48.738;9.226;2023-04-06T04:01:39;13.90;;;11.50;;
1378;SDS011;683;48.738;9.226;2023-04-06T04:04:08;14.27;;;10.40;;
1378;SDS011;683;48.738;9.226;2023-04-06T04:06:35;13.70;;;11.30;;
1378;SDS011;683;48.738;9.226;2023-04-06T04:09:06;14.27;;;10.60;;
1378;SDS011;683;48.738;9.226;2023-04-06T04:11:37;15.63;;;12.07;;
1378;SDS011;683;48.738;9.226;2023-04-06T04:14:04;20.10;;;12.83;;
1378;SDS011;683;48.738;9.226;2023-04-06T04:16:32;17.30;;;12.43;;
1378;SDS011;683;48.738;9.226;2023-04-06T04:18:59;14.40;;;10.10;;
1378;SDS011;683;48.738;9.226;2023-04-06T04:21:31;20.50;;;11.13;;
1378;SDS011;683;48.738;9.226;2023-04-06T04:24:04;17.07;;;13.33;;
1378;SDS011;683;48.738;9.226;2023-04-06T04:26:34;14.97;;;12.83;;
1378;SDS011;683;48.738;9.226;2023-04-06T04:29:02;29.43;;;11.40;;
1378;SDS011;683;48.738;9.226;2023-04-06T04:31:31;15.23;;;11.67;;
1378;SDS011;683;48.738;9.226;2023-04-06T04:34:03;12.80;;;11.47;;
1378;SDS011;683;48.738;9.226;2023-04-06T04:36:35;14.23;;;10.70;;
1378;SDS011;683;48.738;9.226;2023-04-06T04:39:06;12.97;;;10.30;;
1378;SDS011;683;48.738;9.226;2023-04-06T04:41:38;11.67;;;10.20;;
1378;SDS011;683;48.738;9.226;2023-04-06T04:44:09;15.80;;;10.27;;
1378;SDS011;683;48.738;9.226;2023-04-06T04:46:36;19.77;;;10.43;;
1378;SDS011;683;48.738;9.226;2023-04-06T04:49:07;12.37;;;10.43;;
1378;SDS011;683;48.738;9.226;2023-04-06T04:51:36;15.83;;;10.30;;
1378;SDS011;683;48.738;9.226;2023-04-06T04:54:08;15.23;;;11.40;;
1378;SDS011;683;48.738;9.226;2023-04-06T04:56:39;13.23;;;11.23;;
1378;SDS011;683;48.738;9.226;2023-04-06T04:59:22;13.07;;;10.93;;
1378;SDS011;683;48.738;9.226;2023-04-06T05:01:58;11.77;;;10.50;;
1378;SDS011;683;48.738;9.226;2023-04-06T05:04:35;13.73;;;11.33;;
1378;SDS011;683;48.738;9.226;2023-04-06T05:07:06;11.50;;;10.20;;
1378;SDS011;683;48.738;9.226;2023-04-06T05:09:37;14.27;;;10.90;;
1378;SDS011;683;48.738;9.226;2023-04-06T05:12:05;12.87;;;11.13;;
1378;SDS011;683;48.738;9.226;2023-04-06T05:14:44;11.00;;;9.90;;
1378;SDS011;683;48.738;9.226;2023-04-06T05:17:14;15.80;;;11.47;;
1378;SDS011;683;48.738;9.226;2023-04-06T05:19:43;11.80;;;10.57;;
1378;SDS011;683;48.738;9.226;2023-04-06T05:22:16;14.70;;;10.10;;
1378;SDS011;683;48.738;9.226;2023-04-06T05:24:47;15.83;;;11.40;;
1378;SDS011;683;48.738;9.226;2023-04-06T05:27:17;13.60;;;11.43;;
1378;SDS011;683;48.738;9.226;2023-04-06T05:29:45;15.57;;;12.50;;
1378;SDS011;683;48.738;9.226;2023-04-06T05:32:14;16.77;;;13.00;;
1378;SDS011;683;48.738;9.226;2023-04-06T05:34:43;17.40;;;13.47;;
1378;SDS011;683;48.738;9.226;2023-04-06T05:37:11;15.20;;;12.40;;
1378;SDS011;683;48.738;9.226;2023-04-06T05:39:40;18.03;;;11.27;;
1378;SDS011;683;48.738;9.226;2023-04-06T05:42:08;19.03;;;13.87;;
1378;SDS011;683;48.738;9.226;2023-04-06T05:45:06;16.20;;;11.53;;
1378;SDS011;683;48.738;9.226;2023-04-06T05:47:34;15.50;;;12.07;;
1378;SDS011;683;48.738;9.226;2023-04-06T05:50:16;16.67;;;13.90;;
1378;SDS011;683;48.738;9.226;2023-04-06T05:52:44;14.53;;;12.13;;
1378;SDS011;683;48.738;9.226;2023-04-06T05:55:17;22.20;;;12.93;;
1378;SDS011;683;48.738;9.226;2023-04-06T05:57:50;17.77;;;13.67;;
1378;SDS011;683;48.738;9.226;2023-04-06T06:00:20;18.90;;;13.90;;
1378;SDS011;683;48.738;9.226;2023-04-06T06:02:59;18.00;;;13.30;;
1378;SDS011;683;48.738;9.226;2023-04-06T06:05:33;17.23;;;13.30;;
1378;SDS011;683;48.738;9.226;2023-04-06T06:08:08;17.90;;;14.43;;
1378;SDS011;683;48.738;9.226;2023-04-06T06:10:37;19.53;;;14.00;;
1378;SDS011;683;48.738;9.226;2023-04-06T06:13:07;14.40;;;12.53;;
1378;SDS011;683;48.738;9.226;2023-04-06T06:15:37;17.60;;;12.20;;
1378;SDS011;683;48.738;9.226;2023-04-06T06:18:06;14.90;;;12.50;;
1378;SDS011;683;48.738;9.226;2023-04-06T06:20:34;15.93;;;13.20;;
1378;SDS011;683;48.738;9.226;2023-04-06T06:23:05;16.37;;;12.70;;
1378;SDS011;683;48.738;9.226;2023-04-06T06:25:32;20.60;;;15.47;;
1378;SDS011;683;48.738;9.226;2023-04-06T06:28:03;18.93;;;13.43;;
1378;SDS011;683;48.738;9.226;2023-04-06T06:30:31;16.37;;;13.60;;
1378;SDS011;683;48.738;9.226;2023-04-06T06:33:01;16.60;;;12.50;;
1378;SDS011;683;48.738;9.226;2023-04-06T06:35:29;17.40;;;12.10;;
1378;SDS011;683;48.738;9.226;2023-04-06T06:38:01;16.27;;;12.53;;
1378;SDS011;683;48.738;9.226;2023-04-06T06:40:31;16.40;;;13.67;;
1378;SDS011;683;48.738;9.226;2023-04-06T06:43:00;14.37;;;11.43;;
1378;SDS011;683;48.738;9.226;2023-04-06T06:45:39;13.23;;;10.90;;
1378;SDS011;683;48.738;9.226;2023-04-06T06:48:07;12.60;;;11.30;;
1378;SDS011;683;48.738;9.226;2023-04-06T06:50:34;15.13;;;11.80;;
1378;SDS011;683;48.738;9.226;2023-04-06T06:53:02;14.63;;;13.00;;
1378;SDS011;683;48.738;9.226;2023-04-06T06:55:33;16.20;;;13.17;;
1378;SDS011;683;48.738;9.226;2023-04-06T06:58:01;16.20;;;12.70;;
1378;SDS011;683;48.738;9.226;2023-04-06T07:00:28;16.77;;;12.80;;
1378;SDS011;683;48.738;9.226;2023-04-06T07:02:58;15.20;;;12.40;;
1378;SDS011;683;48.738;9.226;2023-04-06T07:05:25;16.60;;;12.57;;
1378;SDS011;683;48.738;9.226;2023-04-06T07:07:56;14.83;;;10.47;;
1378;SDS011;683;48.738;9.226;2023-04-06T07:10:25;15.63;;;12.37;;
1378;SDS011;683;48.738;9.226;2023-04-06T07:12:55;17.30;;;11.47;;
1378;SDS011;683;48.738;9.226;2023-04-06T07:15:28;16.73;;;12.67;;
1378;SDS011;683;48.738;9.226;2023-04-06T07:17:58;16.17;;;14.43;;
1378;SDS011;683;48.738;9.226;2023-04-06T07:20:28;15.70;;;12.60;;
1378;SDS011;683;48.738;9.226;2023-04-06T07:22:56;15.33;;;12.60;;
1378;SDS011;683;48.738;9.226;2023-04-06T07:25:25;23.60;;;12.57;;
1378;SDS011;683;48.738;9.226;2023-04-06T07:27:55;14.37;;;12.13;;
1378;SDS011;683;48.738;9.226;2023-04-06T07:30:24;13.00;;;11.60;;
1378;SDS011;683;48.738;9.226;2023-04-06T07:32:58;16.40;;;11.47;;
1378;SDS011;683;48.738;9.226;2023-04-06T07:35:27;19.67;;;14.50;;
1378;SDS011;683;48.738;9.226;2023-04-06T07:37:58;15.73;;;14.20;;
1378;SDS011;683;48.738;9.226;2023-04-06T07:40:29;19.23;;;13.20;;
1378;SDS011;683;48.738;9.226;2023-04-06T07:42:57;17.97;;;14.07;;
1378;SDS011;683;48.738;9.226;2023-04-06T07:45:24;15.17;;;12.50;;
1378;SDS011;683;48.738;9.226;2023-04-06T07:47:53;13.53;;;12.17;;
1378;SDS011;683;48.738;9.226;2023-04-06T07:50:22;14.13;;;12.23;;
1378;SDS011;683;48.738;9.226;2023-04-06T07:52:50;13.93;;;11.07;;
1378;SDS011;683;48.738;9.226;2023-04-06T07:55:19;14.27;;;12.17;;
1378;SDS011;683;48.738;9.226;2023-04-06T07:57:47;12.60;;;11.30;;
1378;SDS011;683;48.738;9.226;2023-04-06T08:00:14;12.83;;;11.20;;
1378;SDS011;683;48.738;9.226;2023-04-06T08:02:42;13.63;;;12.27;;
1378;SDS011;683;48.738;9.226;2023-04-06T08:05:10;14.30;;;11.83;;
1378;SDS011;683;48.738;9.226;2023-04-06T08:07:38;12.50;;;10.60;;
1378;SDS011;683;48.738;9.226;2023-04-06T08:10:07;14.20;;;12.10;;
1378;SDS011;683;48.738;9.226;2023-04-06T08:12:35;14.07;;;12.20;;
1378;SDS011;683;48.738;9.226;2023-04-06T08:15:03;14.63;;;12.03;;
1378;SDS011;683;48.738;9.226;2023-04-06T08:17:32;16.20;;;11.70;;
1378;SDS011;683;48.738;9.226;2023-04-06T08:20:00;16.07;;;12.90;;
1378;SDS011;683;48.738;9.226;2023-04-06T08:22:32;14.07;;;12.13;;
1378;SDS011;683;48.738;9.226;2023-04-06T08:25:01;15.87;;;12.13;;
1378;SDS011;683;48.738;9.226;2023-04-06T08:27:30;14.00;;;11.50;;
1378;SDS011;683;48.738;9.226;2023-04-06T08:29:57;15.03;;;11.53;;
1378;SDS011;683;48.738;9.226;2023-04-06T08:32:25;15.43;;;11.80;;
1378;SDS011;683;48.738;9.226;2023-04-06T08:34:52;16.43;;;11.47;;
1378;SDS011;683;48.738;9.226;2023-04-06T08:37:20;14.13;;;12.10;;
1378;SDS011;683;48.738;9.226;2023-04-06T08:39:48;12.33;;;10.93;;
1378;SDS011;683;48.738;9.226;2023-04-06T08:42:18;13.37;;;10.40;;
1378;SDS011;683;48.738;9.226;2023-04-06T08:44:47;11.30;;;10.03;;
1378;SDS011;683;48.738;9.226;2023-04-06T08:47:16;17.80;;;12.63;;
1378;SDS011;683;48.738;9.226;2023-04-06T08:49:47;14.60;;;11.60;;
1378;SDS011;683;48.738;9.226;2023-04-06T08:52:15;11.57;;;10.37;;
1378;SDS011;683;48.738;9.226;2023-04-06T08:54:45;12.40;;;11.10;;
1378;SDS011;683;48.738;9.226;2023-04-06T08:57:12;12.77;;;10.47;;
1378;SDS011;683;48.738;9.226;2023-04-06T08:59:44;14.03;;;11.40;;
1378;SDS011;683;48.738;9.226;2023-04-06T09:02:15;13.57;;;12.23;;
1378;SDS011;683;48.738;9.226;2023-04-06T09:04:44;18.50;;;11.60;;
1378;SDS011;683;48.738;9.226;2023-04-06T09:07:14;14.10;;;11.33;;
1378;SDS011;683;48.738;9.226;2023-04-06T09:09:42;11.40;;;10.20;;
1378;SDS011;683;48.738;9.226;2023-04-06T09:12:21;12.27;;;10.37;;
1378;SDS011;683;48.738;9.226;2023-04-06T09:14:51;13.23;;;11.30;;
1378;SDS011;683;48.738;9.226;2023-04-06T09:17:20;11.70;;;9.83;;
1378;SDS011;683;48.738;9.226;2023-04-06T09:19:48;14.17;;;10.97;;
1378;SDS011;683;48.738;9.226;2023-04-06T09:22:18;12.90;;;10.10;;
1378;SDS011;683;48.738;9.226;2023-04-06T09:24:47;15.33;;;11.50;;
1378;SDS011;683;48.738;9.226;2023-04-06T09:27:15;13.27;;;10.90;;
1378;SDS011;683;48.738;9.226;2023-04-06T09:29:43;15.47;;;12.13;;
1378;SDS011;683;48.738;9.226;2023-04-06T09:32:12;13.90;;;10.47;;
1378;SDS011;683;48.738;9.226;2023-04-06T09:34:42;11.93;;;10.63;;
1378;SDS011;683;48.738;9.226;2023-04-06T09:37:14;14.73;;;10.63;;
1378;SDS011;683;48.738;9.226;2023-04-06T09:39:42;13.30;;;10.50;;
1378;SDS011;683;48.738;9.226;2023-04-06T09:42:11;14.77;;;10.47;;
1378;SDS011;683;48.738;9.226;2023-04-06T09:44:53;18.23;;;11.07;;
1378;SDS011;683;48.738;9.226;2023-04-06T09:47:22;14.43;;;10.70;;
1378;SDS011;683;48.738;9.226;2023-04-06T09:49:53;11.80;;;9.30;;
1378;SDS011;683;48.738;9.226;2023-04-06T09:52:23;12.30;;;10.40;;
1378;SDS011;683;48.738;9.226;2023-04-06T09:54:54;9.80;;;8.80;;
1378;SDS011;683;48.738;9.226;2023-04-06T09:57:28;9.50;;;8.20;;
1378;SDS011;683;48.738;9.226;2023-04-06T10:00:01;10.60;;;9.50;;
1378;SDS011;683;48.738;9.226;2023-04-06T10:02:36;11.80;;;10.20;;
1378;SDS011;683;48.738;9.226;2023-04-06T10:05:12;11.30;;;10.20;;
1378;SDS011;683;48.738;9.226;2023-04-06T10:07:47;12.97;;;10.93;;
1378;SDS011;683;48.738;9.226;2023-04-06T10:10:17;10.50;;;9.40;;
1378;SDS011;683;48.738;9.226;2023-04-06T10:12:45;12.73;;;10.23;;
1378;SDS011;683;48.738;9.226;2023-04-06T10:15:17;10.30;;;9.30;;
1378;SDS011;683;48.738;9.226;2023-04-06T10:17:46;8.60;;;7.70;;
1378;SDS011;683;48.738;9.226;2023-04-06T10:20:14;8.93;;;7.63;;
1378;SDS011;683;48.738;9.226;2023-04-06T10:22:49;8.60;;;7.33;;
1378;SDS011;683;48.738;9.226;2023-04-06T10:25:28;8.23;;;7.53;;
1378;SDS011;683;48.738;9.226;2023-04-06T10:28:00;8.20;;;7.37;;
1378;SDS011;683;48.738;9.226;2023-04-06T10:30:28;10.60;;;8.37;;
1378;SDS011;683;48.738;9.226;2023-04-06T10:33:01;16.23;;;8.67;;
1378;SDS011;683;48.738;9.226;2023-04-06T10:35:40;9.83;;;7.87;;
1378;SDS011;683;48.738;9.226;2023-04-06T10:38:08;9.53;;;8.03;;
1378;SDS011;683;48.738;9.226;2023-04-06T10:40:37;8.30;;;7.50;;
1378;SDS011;683;48.738;9.226;2023-04-06T10:43:08;8.37;;;7.53;;
1378;SDS011;683;48.738;9.226;2023-04-06T10:45:39;8.40;;;7.50;;
1378;SDS011;683;48.738;9.226;2023-04-06T10:48:16;10.27;;;9.17;;
1378;SDS011;683;48.738;9.226;2023-04-06T10:50:44;9.07;;;7.50;;
1378;SDS011;683;48.738;9.226;2023-04-06T10:53:20;9.00;;;8.10;;
1378;SDS011;683;48.738;9.226;2023-04-06T10:55:49;8.17;;;7.33;;
1378;SDS011;683;48.738;9.226;2023-04-06T10:58:17;9.50;;;7.60;;
1378;SDS011;683;48.738;9.226;2023-04-06T11:00:45;9.87;;;8.87;;
1378;SDS011;683;48.738;9.226;2023-04-06T11:03:13;9.23;;;8.33;;
1378;SDS011;683;48.738;9.226;2023-04-06T11:05:43;8.63;;;7.83;;
1378;SDS011;683;48.738;9.226;2023-04-06T11:08:21;10.00;;;8.60;;
1378;SDS011;683;48.738;9.226;2023-04-06T11:10:49;8.67;;;7.87;;
1378;SDS011;683;48.738;9.226;2023-04-06T11:13:17;10.63;;;7.47;;
1378;SDS011;683;48.738;9.226;2023-04-06T11:15:44;10.70;;;7.80;;
1378;SDS011;683;48.738;9.226;2023-04-06T11:18:18;8.50;;;7.70;;
1378;SDS011;683;48.738;9.226;2023-04-06T11:20:47;8.87;;;8.07;;
1378;SDS011;683;48.738;9.226;2023-04-06T11:23:22;11.70;;;8.37;;
1378;SDS011;683;48.738;9.226;2023-04-06T11:25:50;12.90;;;8.30;;
1378;SDS011;683;48.738;9.226;2023-04-06T11:28:19;8.80;;;7.70;;
1378;SDS011;683;48.738;9.226;2023-04-06T11:30:46;7.60;;;6.53;;
1378;SDS011;683;48.738;9.226;2023-04-06T11:33:21;8.60;;;7.30;;
1378;SDS011;683;48.738;9.226;2023-04-06T11:35:49;9.00;;;7.40;;
1378;SDS011;683;48.738;9.226;2023-04-06T11:38:18;7.83;;;6.77;;
1378;SDS011;683;48.738;9.226;2023-04-06T11:40:46;7.20;;;6.50;;
1378;SDS011;683;48.738;9.226;2023-04-06T11:43:25;7.83;;;7.03;;
1378;SDS011;683;48.738;9.226;2023-04-06T11:45:59;7.33;;;6.63;;
1378;SDS011;683;48.738;9.226;2023-04-06T11:48:30;6.33;;;5.73;;
1378;SDS011;683;48.738;9.226;2023-04-06T11:50:59;6.90;;;6.20;;
1378;SDS011;683;48.738;9.226;2023-04-06T11:53:27;6.90;;;6.30;;
1378;SDS011;683;48.738;9.226;2023-04-06T11:55:55;8.07;;;6.90;;
1378;SDS011;683;48.738;9.226;2023-04-06T11:58:23;9.10;;;6.47;;
1378;SDS011;683;48.738;9.226;2023-04-06T12:00:50;5.90;;;5.37;;
1378;SDS011;683;48.738;9.226;2023-04-06T12:03:22;6.10;;;5.60;;
1378;SDS011;683;48.738;9.226;2023-04-06T12:05:53;6.20;;;5.60;;
1378;SDS011;683;48.738;9.226;2023-04-06T12:08:21;8.90;;;8.00;;
1378;SDS011;683;48.738;9.226;2023-04-06T12:10:50;7.87;;;7.03;;
1378;SDS011;683;48.738;9.226;2023-04-06T12:13:18;7.00;;;6.30;;
1378;SDS011;683;48.738;9.226;2023-04-06T12:15:46;8.43;;;7.53;;
1378;SDS011;683;48.738;9.226;2023-04-06T12:18:13;9.03;;;7.27;;
1378;SDS011;683;48.738;9.226;2023-04-06T12:20:41;11.10;;;6.90;;
1378;SDS011;683;48.738;9.226;2023-04-06T12:23:10;8.23;;;7.40;;
1378;SDS011;683;48.738;9.226;2023-04-06T12:25:38;6.80;;;6.20;;
1378;SDS011;683;48.738;9.226;2023-04-06T12:28:08;6.90;;;6.20;;
1378;SDS011;683;48.738;9.226;2023-04-06T12:30:36;8.20;;;7.27;;
1378;SDS011;683;48.738;9.226;2023-04-06T12:33:06;8.30;;;7.23;;
1378;SDS011;683;48.738;9.226;2023-04-06T12:35:34;8.10;;;7.30;;
1378;SDS011;683;48.738;9.226;2023-04-06T12:38:02;6.93;;;6.23;;
1378;SDS011;683;48.738;9.226;2023-04-06T12:40:31;8.50;;;7.13;;
1378;SDS011;683;48.738;9.226;2023-04-06T12:43:03;6.87;;;6.27;;
1378;SDS011;683;48.738;9.226;2023-04-06T12:45:31;6.50;;;5.90;;
1378;SDS011;683;48.738;9.226;2023-04-06T12:47:59;7.10;;;6.50;;
1378;SDS011;683;48.738;9.226;2023-04-06T12:50:27;6.77;;;6.20;;
1378;SDS011;683;48.738;9.226;2023-04-06T12:52:55;7.83;;;7.13;;
1378;SDS011;683;48.738;9.226;2023-04-06T12:55:24;8.00;;;7.20;;
1378;SDS011;683;48.738;9.226;2023-04-06T12:58:01;8.07;;;6.70;;
1378;SDS011;683;48.738;9.226;2023-04-06T13:00:28;6.93;;;6.33;;
1378;SDS011;683;48.738;9.226;2023-04-06T13:03:01;6.97;;;6.30;;
1378;SDS011;683;48.738;9.226;2023-04-06T13:05:29;7.50;;;6.80;;
1378;SDS011;683;48.738;9.226;2023-04-06T13:07:56;7.43;;;6.73;;
1378;SDS011;683;48.738;9.226;2023-04-06T13:10:24;7.30;;;6.60;;
1378;SDS011;683;48.738;9.226;2023-04-06T13:12:51;7.40;;;6.80;;
1378;SDS011;683;48.738;9.226;2023-04-06T13:15:20;12.10;;;6.40;;
1378;SDS011;683;48.738;9.226;2023-04-06T13:17:49;8.43;;;7.63;;
1378;SDS011;683;48.738;9.226;2023-04-06T13:20:19;6.37;;;5.77;;
1378;SDS011;683;48.738;9.226;2023-04-06T13:22:49;7.07;;;6.47;;
1378;SDS011;683;48.738;9.226;2023-04-06T13:25:16;8.07;;;7.27;;
1378;SDS011;683;48.738;9.226;2023-04-06T13:27:44;8.10;;;7.30;;
1378;SDS011;683;48.738;9.226;2023-04-06T13:30:14;7.67;;;6.40;;
1378;SDS011;683;48.738;9.226;2023-04-06T13:32:43;7.27;;;6.57;;
1378;SDS011;683;48.738;9.226;2023-04-06T13:35:13;7.17;;;6.57;;
1378;SDS011;683;48.738;9.226;2023-04-06T13:37:40;6.93;;;6.30;;
1378;SDS011;683;48.738;9.226;2023-04-06T13:40:08;9.23;;;6.50;;
1378;SDS011;683;48.738;9.226;2023-04-06T13:42:37;8.33;;;7.53;;
1378;SDS011;683;48.738;9.226;2023-04-06T13:45:06;9.30;;;7.03;;
1378;SDS011;683;48.738;9.226;2023-04-06T13:47:35;6.90;;;6.17;;
1378;SDS011;683;48.738;9.226;2023-04-06T13:50:04;8.07;;;7.27;;
1378;SDS011;683;48.738;9.226;2023-04-06T13:52:35;7.60;;;6.80;;
1378;SDS011;683;48.738;9.226;2023-04-06T13:55:06;6.77;;;6.17;;
1378;SDS011;683;48.738;9.226;2023-04-06T13:57:33;7.97;;;7.27;;
1378;SDS011;683;48.738;9.226;2023-04-06T14:00:03;7.77;;;7.07;;
1378;SDS011;683;48.738;9.226;2023-04-06T14:02:32;7.00;;;6.40;;
1378;SDS011;683;48.738;9.226;2023-04-06T14:04:59;7.10;;;6.40;;
1378;SDS011;683;48.738;9.226;2023-04-06T14:07:28;8.17;;;7.07;;
1378;SDS011;683;48.738;9.226;2023-04-06T14:09:55;6.80;;;6.30;;
1378;SDS011;683;48.738;9.226;2023-04-06T14:12:23;6.73;;;6.10;;
1378;SDS011;683;48.738;9.226;2023-04-06T14:14:50;6.70;;;6.10;;
1378;SDS011;683;48.738;9.226;2023-04-06T14:17:18;7.40;;;6.70;;
1378;SDS011;683;48.738;9.226;2023-04-06T14:19:45;7.43;;;6.40;;
1378;SDS011;683;48.738;9.226;2023-04-06T14:22:14;7.63;;;5.97;;
1378;SDS011;683;48.738;9.226;2023-04-06T14:24:46;6.63;;;6.03;;
1378;SDS011;683;48.738;9.226;2023-04-06T14:27:15;10.93;;;7.73;;
1378;SDS011;683;48.738;9.226;2023-04-06T14:29:43;10.97;;;6.87;;
1378;SDS011;683;48.738;9.226;2023-04-06T14:32:10;7.30;;;6.60;;
1378;SDS011;683;48.738;9.226;2023-04-06T14:34:39;9.70;;;6.97;;
1378;SDS011;683;48.738;9.226;2023-04-06T14:37:09;7.23;;;6.40;;
1378;SDS011;683;48.738;9.226;2023-04-06T14:39:37;7.83;;;7.03;;
1378;SDS011;683;48.738;9.226;2023-04-06T14:42:06;7.80;;;6.77;;
1378;SDS011;683;48.738;9.226;2023-04-06T14:44:33;7.30;;;6.43;;
1378;SDS011;683;48.738;9.226;2023-04-06T14:47:04;7.40;;;6.80;;
1378;SDS011;683;48.738;9.226;2023-04-06T14:49:31;7.80;;;6.60;;
1378;SDS011;683;48.738;9.226;2023-04-06T14:51:59;6.37;;;5.87;;
1378;SDS011;683;48.738;9.226;2023-04-06T14:54:26;7.70;;;7.00;;
1378;SDS011;683;48.738;9.226;2023-04-06T14:56:55;9.60;;;7.43;;
1378;SDS011;683;48.738;9.226;2023-04-06T14:59:24;7.37;;;6.70;;
1378;SDS011;683;48.738;9.226;2023-04-06T15:01:52;7.20;;;6.50;;
1378;SDS011;683;48.738;9.226;2023-04-06T15:04:21;8.20;;;7.30;;
1378;SDS011;683;48.738;9.226;2023-04-06T15:06:48;6.80;;;6.17;;
1378;SDS011;683;48.738;9.226;2023-04-06T15:09:16;7.40;;;6.70;;
1378;SDS011;683;48.738;9.226;2023-04-06T15:11:43;7.43;;;6.60;;
1378;SDS011;683;48.738;9.226;2023-04-06T15:14:11;6.67;;;6.07;;
1378;SDS011;683;48.738;9.226;2023-04-06T15:16:39;7.50;;;6.80;;
1378;SDS011;683;48.738;9.226;2023-04-06T15:19:07;7.60;;;6.20;;
1378;SDS011;683;48.738;9.226;2023-04-06T15:21:36;6.60;;;5.90;;
1378;SDS011;683;48.738;9.226;2023-04-06T15:24:07;8.03;;;7.23;;
1378;SDS011;683;48.738;9.226;2023-04-06T15:26:35;6.30;;;5.33;;
1378;SDS011;683;48.738;9.226;2023-04-06T15:29:03;11.10;;;6.13;;
1378;SDS011;683;48.738;9.226;2023-04-06T15:31:30;6.47;;;5.87;;